Aurora, Texas
Current Conditions -  °F | °C
As of 10:53 PM on Friday 31 Oct 2014 (Local Time) from KAFW Reporting Station
Few Clouds Few Clouds  
Wind Chill: 50°   Ceiling: Unl
Heat Index: 50°   Visibility: 10mi
Dew Point: 36°   Wind: 8mph
Humidity: 59%   Direction: 20°NNE
Pressure: 30.37"   Gusts: NA
Location:  33.0495°N, 97.45°W
Report Text: KAFW 010353Z 02007KT 10SM FEW300 10/02 A3037 RMK AO2 SLP282 T01000022
Loading
Personal Weather Stations






























Interactive Weather Map
Tropical Storm Tracking
New forecast layout! Learn more

10-Day Weather Forecast

Advertisements
Track Severe Weather on mobile